Time;durP1;ratioP1;P1;durP2;ratioP2;P2;SDS_P1;SDS_P2;PMS_P1;PMS_P2;Temp;Humidity;BMP_temperature;BMP_pressure;BME280_temperature;BME280_humidity;BME280_pressure;Samples;Min_cycle;Max_cycle;Signal;HPM_P1;HPM_P2
2022/10/31 00:00:05;;;;;;;3.45;2.22;;;;;;;;;;5034240;28;94860;-77
2022/10/31 00:02:33;;;;;;;3.72;2.25;;;;;;;;;;5018540;28;95831;-77
2022/10/31 00:04:59;;;;;;;2.33;1.80;;;;;;;;;;5018267;28;93466;-77
2022/10/31 00:07:25;;;;;;;2.28;1.80;;;;;;;;;;5035085;28;92541;-77
2022/10/31 00:09:52;;;;;;;3.40;2.35;;;;;;;;;;5035767;28;93222;-77
2022/10/31 00:12:18;;;;;;;2.65;1.92;;;;;;;;;;5035054;28;93394;-77
2022/10/31 00:14:44;;;;;;;3.25;2.20;;;;;;;;;;5038631;28;92479;-77
2022/10/31 00:17:11;;;;;;;3.10;2.25;;;;;;;;;;5035622;28;92663;-77
2022/10/31 00:19:37;;;;;;;1.70;1.60;;;;;;;;;;5035800;28;92457;-77
2022/10/31 00:22:03;;;;;;;2.58;1.98;;;;;;;;;;5017827;28;93251;-77
2022/10/31 00:24:29;;;;;;;2.85;1.92;;;;;;;;;;5015745;28;95746;-77
2022/10/31 00:26:56;;;;;;;3.45;2.35;;;;;;;;;;5035386;28;92346;-77
2022/10/31 00:29:22;;;;;;;4.80;2.20;;;;;;;;;;5035241;28;93435;-77
2022/10/31 00:31:48;;;;;;;3.15;2.00;;;;;;;;;;5035186;28;93543;-77
2022/10/31 00:34:14;;;;;;;3.20;1.60;;;;;;;;;;5038322;28;92721;-77
2022/10/31 00:36:41;;;;;;;2.20;1.90;;;;;;;;;;5035006;28;93403;-77
2022/10/31 00:39:07;;;;;;;3.40;1.90;;;;;;;;;;5035186;28;92471;-77
2022/10/31 00:41:33;;;;;;;3.10;2.00;;;;;;;;;;5035724;28;93192;-77
2022/10/31 00:43:59;;;;;;;2.67;1.80;;;;;;;;;;5035266;28;93397;-77
2022/10/31 00:46:26;;;;;;;3.47;2.10;;;;;;;;;;5034812;28;92562;-77
2022/10/31 00:48:52;;;;;;;2.45;2.05;;;;;;;;;;5033560;28;94758;-77
2022/10/31 00:51:18;;;;;;;2.08;1.75;;;;;;;;;;5034449;28;93741;-77
2022/10/31 00:53:45;;;;;;;2.67;1.92;;;;;;;;;;5035112;28;92448;-77
2022/10/31 00:56:11;;;;;;;3.63;1.83;;;;;;;;;;5037842;28;93455;-77
2022/10/31 00:58:37;;;;;;;2.60;1.70;;;;;;;;;;5017597;28;92436;-77
2022/10/31 01:01:04;;;;;;;3.20;1.70;;;;;;;;;;5035009;28;93129;-77
2022/10/31 01:03:32;;;;;;;3.70;2.30;;;;;;;;;;5016738;28;93096;-77
2022/10/31 01:06:03;;;;;;;2.17;1.67;;;;;;;;;;5035555;28;91669;-77
2022/10/31 01:08:29;;;;;;;2.78;1.90;;;;;;;;;;5013321;28;94557;-77
2022/10/31 01:11:03;;;;;;;1.85;1.73;;;;;;;;;;5014691;28;93442;-77
2022/10/31 01:13:30;;;;;;;1.77;1.40;;;;;;;;;;5013385;28;94853;-77
2022/10/31 01:15:57;;;;;;;3.35;2.10;;;;;;;;;;5014562;28;95958;-78
2022/10/31 01:18:23;;;;;;;2.92;1.90;;;;;;;;;;5016428;28;93444;-77
2022/10/31 01:21:00;;;;;;;2.35;1.83;;;;;;;;;;5014819;28;92422;-77
2022/10/31 01:23:26;;;;;;;2.05;1.60;;;;;;;;;;5014353;28;93535;-77
2022/10/31 01:26:03;;;;;;;2.30;1.65;;;;;;;;;;5014990;28;92487;-77
2022/10/31 01:28:30;;;;;;;2.00;1.65;;;;;;;;;;5014411;28;93177;-77
2022/10/31 01:30:59;;;;;;;1.65;1.55;;;;;;;;;;5015111;28;91967;-77
2022/10/31 01:33:26;;;;;;;3.08;1.73;;;;;;;;;;5013988;28;92488;-77
2022/10/31 01:35:52;;;;;;;2.05;1.80;;;;;;;;;;5014768;28;93237;-77
2022/10/31 01:38:18;;;;;;;2.35;1.67;;;;;;;;;;5011230;28;95845;-77
2022/10/31 01:40:44;;;;;;;3.28;1.70;;;;;;;;;;5018014;28;92442;-77
2022/10/31 01:43:14;;;;;;;1.73;1.63;;;;;;;;;;5014296;28;95356;-77
2022/10/31 01:45:44;;;;;;;2.07;1.80;;;;;;;;;;5014559;28;92501;-77
2022/10/31 01:48:13;;;;;;;1.95;1.70;;;;;;;;;;5013892;28;93544;-77
2022/10/31 01:50:39;;;;;;;2.40;1.63;;;;;;;;;;5014362;28;93911;-77
2022/10/31 01:53:07;;;;;;;2.08;1.88;;;;;;;;;;5014488;28;92464;-77
2022/10/31 01:55:35;;;;;;;2.72;1.90;;;;;;;;;;5013502;28;92934;-77
2022/10/31 01:58:03;;;;;;;3.13;1.80;;;;;;;;;;5012937;28;93522;-77
2022/10/31 02:00:30;;;;;;;3.17;1.92;;;;;;;;;;5014250;28;92416;-77
2022/10/31 02:02:56;;;;;;;2.55;1.60;;;;;;;;;;5015824;28;96379;-77
2022/10/31 02:05:25;;;;;;;1.50;1.40;;;;;;;;;;5017440;28;92440;-77
2022/10/31 02:07:55;;;;;;;2.55;1.90;;;;;;;;;;5028858;28;93505;-77
2022/10/31 02:10:21;;;;;;;2.73;1.70;;;;;;;;;;5037387;28;93365;-77
2022/10/31 02:12:49;;;;;;;1.80;1.50;;;;;;;;;;5038188;28;92439;-77
2022/10/31 02:15:15;;;;;;;1.60;1.50;;;;;;;;;;5036586;28;93239;-77
2022/10/31 02:17:41;;;;;;;2.25;1.40;;;;;;;;;;5037510;28;93439;-77
2022/10/31 02:20:21;;;;;;;1.60;1.50;;;;;;;;;;5037831;28;91992;-77
2022/10/31 02:22:48;;;;;;;2.33;1.50;;;;;;;;;;5038107;28;93431;-77
2022/10/31 02:25:42;;;;;;;1.63;1.42;;;;;;;;;;5040341;28;93197;-77
2022/10/31 02:28:34;;;;;;;1.83;1.42;;;;;;;;;;5035909;28;94715;-77
2022/10/31 02:31:30;;;;;;;1.92;1.48;;;;;;;;;;5037058;28;93398;-77
2022/10/31 02:33:56;;;;;;;2.42;1.50;;;;;;;;;;5019236;28;92482;-77
2022/10/31 02:36:34;;;;;;;1.95;1.67;;;;;;;;;;5037427;28;93190;-77
2022/10/31 02:39:00;;;;;;;2.42;1.50;;;;;;;;;;5036963;28;93451;-77
2022/10/31 02:41:30;;;;;;;2.25;1.42;;;;;;;;;;5019214;28;92596;-77
2022/10/31 02:44:07;;;;;;;2.42;1.42;;;;;;;;;;5037046;28;93158;-77
2022/10/31 02:46:52;;;;;;;2.20;1.60;;;;;;;;;;5040357;28;92925;-77
2022/10/31 02:49:23;;;;;;;2.65;1.60;;;;;;;;;;5019197;28;92486;-77
2022/10/31 02:51:49;;;;;;;2.65;1.67;;;;;;;;;;5019102;28;93383;-77
2022/10/31 02:54:17;;;;;;;2.83;1.63;;;;;;;;;;5035287;28;94848;-77
2022/10/31 02:56:43;;;;;;;1.70;1.60;;;;;;;;;;5036647;28;95648;-77
2022/10/31 02:59:09;;;;;;;3.00;1.52;;;;;;;;;;5037244;28;93843;-77
2022/10/31 03:01:36;;;;;;;2.80;1.45;;;;;;;;;;5036637;28;92339;-77
2022/10/31 03:04:13;;;;;;;1.83;1.40;;;;;;;;;;5036499;28;93169;-78
2022/10/31 03:06:43;;;;;;;1.65;1.40;;;;;;;;;;5036082;28;93348;-77
2022/10/31 03:09:28;;;;;;;1.55;1.45;;;;;;;;;;5039954;28;92427;-77
2022/10/31 03:12:03;;;;;;;2.08;1.50;;;;;;;;;;5037655;28;92275;-77
2022/10/31 03:14:41;;;;;;;2.35;1.58;;;;;;;;;;5036377;27;92431;-77
2022/10/31 03:17:11;;;;;;;1.50;1.33;;;;;;;;;;5036612;28;93203;-77
2022/10/31 03:19:40;;;;;;;1.65;1.33;;;;;;;;;;5034433;28;96177;-77
2022/10/31 03:22:16;;;;;;;2.58;1.52;;;;;;;;;;5036498;28;92359;-77
2022/10/31 03:24:43;;;;;;;2.90;1.48;;;;;;;;;;5036739;28;93100;-77
2022/10/31 03:27:11;;;;;;;1.98;1.75;;;;;;;;;;5036251;28;93756;-77
2022/10/31 03:29:39;;;;;;;1.60;1.50;;;;;;;;;;5036332;28;92348;-77
2022/10/31 03:32:07;;;;;;;2.20;1.23;;;;;;;;;;5038873;28;93479;-77
2022/10/31 03:34:35;;;;;;;1.77;1.45;;;;;;;;;;5036190;28;92495;-77
2022/10/31 03:37:03;;;;;;;1.60;1.50;;;;;;;;;;5036919;28;93123;-77
2022/10/31 03:39:30;;;;;;;1.30;1.20;;;;;;;;;;5035920;28;93654;-77
2022/10/31 03:41:59;;;;;;;1.70;1.25;;;;;;;;;;5036711;28;92442;-77
2022/10/31 03:44:27;;;;;;;1.42;1.33;;;;;;;;;;5016985;28;94879;-77
2022/10/31 03:46:54;;;;;;;3.03;1.50;;;;;;;;;;5035387;28;93174;-77
2022/10/31 03:49:21;;;;;;;1.45;1.35;;;;;;;;;;5036053;28;92429;-77
2022/10/31 03:51:50;;;;;;;2.50;1.48;;;;;;;;;;5036031;28;93120;-77
2022/10/31 03:54:22;;;;;;;1.35;1.20;;;;;;;;;;5038996;28;93447;-77
2022/10/31 03:57:05;;;;;;;1.40;1.30;;;;;;;;;;5036034;28;92624;-77
2022/10/31 03:59:41;;;;;;;1.80;1.13;;;;;;;;;;5035782;28;93386;-77
2022/10/31 04:02:11;;;;;;;1.60;1.30;;;;;;;;;;5037289;28;91664;-77
2022/10/31 04:04:37;;;;;;;4.40;1.60;;;;;;;;;;5036058;28;92489;-77
2022/10/31 04:07:05;;;;;;;3.03;1.60;;;;;;;;;;5035473;28;95994;-77
2022/10/31 04:09:33;;;;;;;1.35;1.17;;;;;;;;;;5034796;28;94730;-77
2022/10/31 04:12:00;;;;;;;1.27;1.10;;;;;;;;;;5017988;28;97694;-77
2022/10/31 04:14:27;;;;;;;1.27;1.13;;;;;;;;;;5017903;28;93731;-77
2022/10/31 04:16:54;;;;;;;1.63;1.40;;;;;;;;;;5038427;28;92465;-77
2022/10/31 04:19:20;;;;;;;1.25;1.00;;;;;;;;;;5035453;28;93478;-77
2022/10/31 04:21:46;;;;;;;1.38;0.93;;;;;;;;;;5036214;28;92483;-77
2022/10/31 04:24:13;;;;;;;1.25;1.15;;;;;;;;;;5035503;28;93124;-77
2022/10/31 04:26:39;;;;;;;1.40;1.30;;;;;;;;;;5035163;27;92579;-77
2022/10/31 04:29:05;;;;;;;3.22;1.27;;;;;;;;;;5017416;28;92404;-77
2022/10/31 04:31:32;;;;;;;1.25;1.15;;;;;;;;;;5035536;28;93063;-77
2022/10/31 04:33:58;;;;;;;1.60;1.13;;;;;;;;;;5016411;28;95119;-77
2022/10/31 04:36:25;;;;;;;1.52;1.05;;;;;;;;;;5017409;28;92507;-77
2022/10/31 04:38:51;;;;;;;2.03;1.30;;;;;;;;;;5020799;28;94197;-77
2022/10/31 04:41:17;;;;;;;1.30;1.10;;;;;;;;;;5035476;28;92402;-77
2022/10/31 04:43:43;;;;;;;2.60;1.20;;;;;;;;;;5035141;28;93104;-77
2022/10/31 04:46:10;;;;;;;1.02;1.00;;;;;;;;;;5035072;28;93455;-77
2022/10/31 04:48:36;;;;;;;1.20;1.10;;;;;;;;;;5034838;28;92496;-77
2022/10/31 04:51:02;;;;;;;1.40;1.10;;;;;;;;;;5036189;28;92778;-77
2022/10/31 04:53:29;;;;;;;1.23;1.10;;;;;;;;;;5034841;28;93433;-77
2022/10/31 04:55:57;;;;;;;1.40;1.10;;;;;;;;;;5034815;28;92474;-77
2022/10/31 04:58:23;;;;;;;1.17;1.08;;;;;;;;;;5036515;28;94784;-77
2022/10/31 05:00:53;;;;;;;1.20;0.98;;;;;;;;;;5034727;28;92406;-77
2022/10/31 05:03:20;;;;;;;1.13;1.02;;;;;;;;;;5034760;28;93092;-77
2022/10/31 05:05:46;;;;;;;1.58;1.20;;;;;;;;;;5035370;28;93087;-77
2022/10/31 05:08:13;;;;;;;1.52;1.15;;;;;;;;;;5034635;28;92486;-77
2022/10/31 05:10:39;;;;;;;1.15;1.10;;;;;;;;;;5034919;28;93413;-77
2022/10/31 05:13:06;;;;;;;1.20;1.10;;;;;;;;;;5034590;28;93487;-77
2022/10/31 05:15:32;;;;;;;1.67;1.20;;;;;;;;;;5017715;28;91777;-77
2022/10/31 05:17:59;;;;;;;0.93;0.93;;;;;;;;;;5034869;28;92806;-77
2022/10/31 05:20:27;;;;;;;0.93;0.93;;;;;;;;;;5019788;28;93488;-78
2022/10/31 05:22:54;;;;;;;1.13;1.02;;;;;;;;;;5032871;28;95155;-77
2022/10/31 05:25:21;;;;;;;1.52;1.10;;;;;;;;;;5034583;28;93482;-77
2022/10/31 05:27:49;;;;;;;1.27;1.17;;;;;;;;;;5017066;28;92469;-77
2022/10/31 05:30:17;;;;;;;1.40;1.30;;;;;;;;;;5034473;28;93113;-77
2022/10/31 05:32:44;;;;;;;1.35;1.20;;;;;;;;;;5034292;28;93455;-77
2022/10/31 05:35:12;;;;;;;0.80;0.80;;;;;;;;;;5034487;28;92542;-77
2022/10/31 05:37:38;;;;;;;1.55;1.25;;;;;;;;;;5034665;27;93161;-77
2022/10/31 05:40:05;;;;;;;2.47;1.00;;;;;;;;;;5037970;28;92712;-77
2022/10/31 05:42:34;;;;;;;1.17;1.00;;;;;;;;;;5041339;28;92466;-77
2022/10/31 05:45:00;;;;;;;0.90;0.90;;;;;;;;;;5037688;28;93824;-77
2022/10/31 05:47:26;;;;;;;0.95;0.82;;;;;;;;;;5036314;28;95066;-77
2022/10/31 05:49:53;;;;;;;0.95;0.95;;;;;;;;;;5037811;28;95496;-77
2022/10/31 05:52:19;;;;;;;1.25;1.13;;;;;;;;;;5037644;28;93391;-77
2022/10/31 05:54:45;;;;;;;1.52;1.10;;;;;;;;;;5020220;28;92473;-77
2022/10/31 05:57:12;;;;;;;1.10;1.00;;;;;;;;;;5037910;28;93029;-77
2022/10/31 05:59:38;;;;;;;1.23;1.10;;;;;;;;;;5037939;28;93453;-77
2022/10/31 06:02:04;;;;;;;2.50;1.17;;;;;;;;;;5037524;28;92429;-77
2022/10/31 06:04:31;;;;;;;2.35;1.30;;;;;;;;;;5040771;28;93413;-77
2022/10/31 06:06:57;;;;;;;0.95;0.95;;;;;;;;;;5037253;28;92513;-77
2022/10/31 06:09:24;;;;;;;1.17;1.08;;;;;;;;;;5037975;28;93429;-77
2022/10/31 06:11:50;;;;;;;3.20;1.27;;;;;;;;;;5035465;28;95821;-77
2022/10/31 06:14:16;;;;;;;1.58;1.40;;;;;;;;;;5019734;28;92427;-77
2022/10/31 06:16:42;;;;;;;1.27;1.13;;;;;;;;;;5037887;28;94253;-77
2022/10/31 06:19:09;;;;;;;2.25;1.20;;;;;;;;;;5037543;28;93686;-77
2022/10/31 06:21:35;;;;;;;1.70;1.20;;;;;;;;;;5019334;28;92442;-77
2022/10/31 06:24:01;;;;;;;1.45;1.00;;;;;;;;;;5019513;28;93253;-77
2022/10/31 06:26:28;;;;;;;3.80;1.63;;;;;;;;;;5041050;28;92465;-77
2022/10/31 06:28:54;;;;;;;1.30;1.20;;;;;;;;;;5038186;28;93832;-77
2022/10/31 06:31:28;;;;;;;1.30;0.95;;;;;;;;;;5037040;28;93467;-77
2022/10/31 06:33:54;;;;;;;2.35;1.50;;;;;;;;;;5019260;28;92594;-77
2022/10/31 06:36:20;;;;;;;1.95;1.40;;;;;;;;;;5036065;28;94774;-77
2022/10/31 06:38:46;;;;;;;4.10;1.40;;;;;;;;;;5019250;28;93436;-77
2022/10/31 06:41:13;;;;;;;4.22;1.73;;;;;;;;;;5037346;28;92381;-77
2022/10/31 06:43:39;;;;;;;2.50;1.60;;;;;;;;;;5037190;28;93328;-77
2022/10/31 06:46:05;;;;;;;1.40;1.27;;;;;;;;;;5036393;28;93591;-77
2022/10/31 06:48:32;;;;;;;3.20;1.20;;;;;;;;;;5040203;28;92401;-77
2022/10/31 06:50:59;;;;;;;1.50;1.40;;;;;;;;;;5036623;27;93376;-77
2022/10/31 06:53:26;;;;;;;3.28;1.80;;;;;;;;;;5037152;28;91689;-77
2022/10/31 06:55:52;;;;;;;2.67;1.50;;;;;;;;;;5036746;28;93169;-77
2022/10/31 06:58:18;;;;;;;1.65;1.40;;;;;;;;;;5018728;28;93459;-77
2022/10/31 07:00:45;;;;;;;1.88;1.33;;;;;;;;;;5035247;28;94803;-77
2022/10/31 07:03:12;;;;;;;1.60;1.50;;;;;;;;;;5036372;28;95467;-77
2022/10/31 07:05:38;;;;;;;2.53;1.73;;;;;;;;;;5036841;28;93624;-77
2022/10/31 07:08:06;;;;;;;1.65;1.30;;;;;;;;;;5039782;28;92574;-77
2022/10/31 07:10:34;;;;;;;1.90;1.80;;;;;;;;;;5019042;28;93572;-77
2022/10/31 07:13:08;;;;;;;1.52;1.42;;;;;;;;;;5036406;28;92543;-77
2022/10/31 07:15:35;;;;;;;1.90;1.52;;;;;;;;;;5036350;28;93113;-77
2022/10/31 07:18:02;;;;;;;1.63;1.52;;;;;;;;;;5036607;28;93067;-77
2022/10/31 07:20:29;;;;;;;1.98;1.60;;;;;;;;;;5037064;28;92526;-77
2022/10/31 07:22:55;;;;;;;1.95;1.60;;;;;;;;;;5019037;28;93470;-77
2022/10/31 07:25:22;;;;;;;2.38;1.50;;;;;;;;;;5034491;28;95818;-78
2022/10/31 07:27:48;;;;;;;4.38;1.95;;;;;;;;;;5019217;28;92439;-77
2022/10/31 07:30:16;;;;;;;3.75;1.88;;;;;;;;;;5039443;28;93097;-78
2022/10/31 07:32:44;;;;;;;3.08;1.70;;;;;;;;;;5036083;28;92421;-77
2022/10/31 07:35:11;;;;;;;1.67;1.58;;;;;;;;;;5018815;28;93094;-77
2022/10/31 07:37:38;;;;;;;2.20;1.63;;;;;;;;;;5036281;28;93417;-77
2022/10/31 07:40:05;;;;;;;2.85;1.48;;;;;;;;;;5036148;28;92533;-77
2022/10/31 07:42:37;;;;;;;1.77;1.63;;;;;;;;;;5018855;28;93141;-77
2022/10/31 07:45:05;;;;;;;1.48;1.38;;;;;;;;;;5036634;28;94710;-77
2022/10/31 07:47:49;;;;;;;2.35;1.40;;;;;;;;;;5036601;28;92418;-77
2022/10/31 07:50:17;;;;;;;2.42;1.80;;;;;;;;;;5034940;28;94788;-77
2022/10/31 07:52:44;;;;;;;1.70;1.58;;;;;;;;;;5038649;28;93471;-77
2022/10/31 07:55:10;;;;;;;1.83;1.50;;;;;;;;;;5035927;28;93126;-77
2022/10/31 07:57:36;;;;;;;1.50;1.40;;;;;;;;;;5035752;28;93551;-77
2022/10/31 08:00:04;;;;;;;1.80;1.70;;;;;;;;;;5035861;28;92493;-77
2022/10/31 08:02:30;;;;;;;2.60;1.70;;;;;;;;;;5034539;27;93110;-77
2022/10/31 08:04:56;;;;;;;1.75;1.55;;;;;;;;;;5036192;28;93851;-77
2022/10/31 08:07:27;;;;;;;2.22;1.63;;;;;;;;;;5035526;28;91812;-77
2022/10/31 08:09:53;;;;;;;1.45;1.25;;;;;;;;;;5036370;28;93868;-77
2022/10/31 08:12:20;;;;;;;1.73;1.63;;;;;;;;;;5035451;28;93765;-77
2022/10/31 08:14:46;;;;;;;1.73;1.63;;;;;;;;;;5037321;28;94828;-77
2022/10/31 08:17:13;;;;;;;2.63;1.73;;;;;;;;;;5035176;28;93506;-77
2022/10/31 08:19:39;;;;;;;3.63;1.60;;;;;;;;;;5035590;28;92504;-77
2022/10/31 08:22:05;;;;;;;1.80;1.70;;;;;;;;;;5036120;28;96012;-77
2022/10/31 08:24:31;;;;;;;2.03;1.60;;;;;;;;;;5017436;28;93949;-77
2022/10/31 08:26:58;;;;;;;2.13;1.95;;;;;;;;;;5036104;28;92477;-78
2022/10/31 08:29:24;;;;;;;1.85;1.73;;;;;;;;;;5035313;28;92858;-77
2022/10/31 08:31:50;;;;;;;2.08;1.70;;;;;;;;;;5018005;28;92716;-77
2022/10/31 08:34:16;;;;;;;1.95;1.38;;;;;;;;;;5035208;28;92507;-78
2022/10/31 08:36:45;;;;;;;2.05;1.85;;;;;;;;;;5038838;28;94256;-77
2022/10/31 08:39:12;;;;;;;1.88;1.67;;;;;;;;;;5034140;28;95073;-77
2022/10/31 08:41:38;;;;;;;1.85;1.52;;;;;;;;;;5017588;28;95851;-78
2022/10/31 08:44:04;;;;;;;2.00;1.58;;;;;;;;;;5035683;28;95690;-77
2022/10/31 08:46:31;;;;;;;1.73;1.63;;;;;;;;;;5035189;28;92479;-78
2022/10/31 08:48:57;;;;;;;1.70;1.17;;;;;;;;;;5035337;28;92998;-77
2022/10/31 08:51:24;;;;;;;1.77;1.50;;;;;;;;;;5035079;28;93427;-77
2022/10/31 08:53:50;;;;;;;1.95;1.77;;;;;;;;;;5035000;28;92464;-77
2022/10/31 08:56:16;;;;;;;1.83;1.73;;;;;;;;;;5038410;28;93258;-77
2022/10/31 08:58:43;;;;;;;1.83;1.52;;;;;;;;;;5035108;28;92428;-77
2022/10/31 09:01:09;;;;;;;1.95;1.70;;;;;;;;;;5034942;28;93437;-77
2022/10/31 09:03:36;;;;;;;1.55;1.45;;;;;;;;;;5032571;28;96011;-77
2022/10/31 09:06:02;;;;;;;1.52;1.42;;;;;;;;;;5034800;28;92474;-77
2022/10/31 09:08:30;;;;;;;2.05;1.40;;;;;;;;;;5034709;28;93217;-77
2022/10/31 09:10:56;;;;;;;2.55;1.58;;;;;;;;;;5035356;28;93524;-77
2022/10/31 09:13:23;;;;;;;1.50;1.40;;;;;;;;;;5034670;27;92442;-78
2022/10/31 09:15:53;;;;;;;;;;;;;;;;;;5034829;28;93035;-77
2022/10/31 09:18:20;;;;;;;2.33;1.60;;;;;;;;;;5038643;28;124030;-77
2022/10/31 09:20:48;;;;;;;1.50;1.40;;;;;;;;;;5017747;28;93059;-77
2022/10/31 09:23:15;;;;;;;1.48;1.38;;;;;;;;;;5034445;28;92595;-77
2022/10/31 09:25:42;;;;;;;1.65;1.38;;;;;;;;;;5034782;28;92570;-77
2022/10/31 09:28:17;;;;;;;1.40;1.30;;;;;;;;;;5033827;28;94745;-77
2022/10/31 09:30:45;;;;;;;2.20;1.60;;;;;;;;;;5016529;28;92457;-77
2022/10/31 09:33:12;;;;;;;1.27;1.17;;;;;;;;;;5017124;28;92483;-77
2022/10/31 09:35:39;;;;;;;1.60;1.50;;;;;;;;;;5034544;28;93077;-77
2022/10/31 09:38:08;;;;;;;1.60;1.50;;;;;;;;;;5034959;28;95411;-77
2022/10/31 09:40:42;;;;;;;1.60;1.50;;;;;;;;;;5037538;28;92412;-77
2022/10/31 09:43:13;;;;;;;1.45;1.35;;;;;;;;;;5034202;28;93466;-78
2022/10/31 09:45:54;;;;;;;2.10;1.63;;;;;;;;;;5017333;28;91799;-77
2022/10/31 09:48:30;;;;;;;1.48;1.38;;;;;;;;;;5017183;28;96146;-77
2022/10/31 09:51:00;;;;;;;2.20;1.65;;;;;;;;;;5034012;28;93742;-77
2022/10/31 09:53:49;;;;;;;1.67;1.58;;;;;;;;;;5032411;28;94903;-78
2022/10/31 09:56:18;;;;;;;2.00;1.80;;;;;;;;;;5023664;28;95936;-77
2022/10/31 09:58:49;;;;;;;1.50;1.40;;;;;;;;;;5034755;28;95573;-77
2022/10/31 10:01:27;;;;;;;1.52;1.42;;;;;;;;;;5034311;28;92512;-78
2022/10/31 10:03:57;;;;;;;2.05;1.55;;;;;;;;;;5036806;28;93032;-78
2022/10/31 10:06:24;;;;;;;2.13;1.52;;;;;;;;;;5016438;28;92577;-77
2022/10/31 10:08:51;;;;;;;1.85;1.70;;;;;;;;;;5034415;28;96014;-77
2022/10/31 10:11:17;;;;;;;1.63;1.50;;;;;;;;;;5035142;28;95530;-77
2022/10/31 10:13:46;;;;;;;2.97;1.67;;;;;;;;;;5016560;28;92578;-77
2022/10/31 10:16:22;;;;;;;1.90;1.70;;;;;;;;;;5033855;28;93085;-77
2022/10/31 10:18:57;;;;;;;2.05;1.73;;;;;;;;;;5032260;28;96155;-77
2022/10/31 10:21:33;;;;;;;1.63;1.52;;;;;;;;;;5016626;28;92516;-77
2022/10/31 10:24:18;;;;;;;1.80;1.67;;;;;;;;;;5016134;28;93102;-77
2022/10/31 10:26:53;;;;;;;1.42;1.33;;;;;;;;;;5040304;28;93412;-77
2022/10/31 10:29:31;;;;;;;1.33;1.23;;;;;;;;;;5037250;28;93116;-77
2022/10/31 10:32:00;;;;;;;1.45;1.35;;;;;;;;;;5037618;28;95583;-77
2022/10/31 10:34:33;;;;;;;1.70;1.60;;;;;;;;;;5019654;28;92441;-77
2022/10/31 10:37:13;;;;;;;2.58;1.40;;;;;;;;;;5037851;28;93463;-77
2022/10/31 10:39:39;;;;;;;;;;;;;;;;;;5037627;28;93077;-77
2022/10/31 10:47:43;;;;;;;1.50;1.40;;;;;;;;;;5017428;28;93246;-78
2022/10/31 10:50:18;;;;;;;1.70;1.60;;;;;;;;;;5020006;28;92594;-77
2022/10/31 10:52:46;;;;;;;2.10;1.70;;;;;;;;;;5016547;28;93438;-78
2022/10/31 10:55:28;;;;;;;1.67;1.58;;;;;;;;;;5017017;28;92433;-77
2022/10/31 10:58:00;;;;;;;1.60;1.50;;;;;;;;;;5016601;28;93091;-77
2022/10/31 11:00:30;;;;;;;1.70;1.30;;;;;;;;;;4999378;28;95936;-77
2022/10/31 11:02:57;;;;;;;1.50;1.40;;;;;;;;;;4999673;28;91866;-77
2022/10/31 11:05:30;;;;;;;1.52;1.42;;;;;;;;;;5016731;28;92761;-77
2022/10/31 11:07:56;;;;;;;3.92;1.40;;;;;;;;;;5036314;28;93808;-77
2022/10/31 11:10:22;;;;;;;1.63;1.48;;;;;;;;;;5038367;28;95210;-77
2022/10/31 11:13:04;;;;;;;2.55;1.63;;;;;;;;;;5036411;28;92361;-77
2022/10/31 11:15:49;;;;;;;2.90;1.77;;;;;;;;;;5018839;28;92542;-77
2022/10/31 11:18:20;;;;;;;2.10;1.40;;;;;;;;;;5036506;28;93171;-78
2022/10/31 11:20:50;;;;;;;1.60;1.50;;;;;;;;;;5018623;28;93813;-77
2022/10/31 11:23:20;;;;;;;1.83;1.30;;;;;;;;;;5036227;28;92512;-77
2022/10/31 11:25:52;;;;;;;2.65;1.50;;;;;;;;;;5036274;28;93241;-77
2022/10/31 11:28:19;;;;;;;1.40;1.30;;;;;;;;;;5037307;28;93664;-77
2022/10/31 11:30:49;;;;;;;1.67;1.55;;;;;;;;;;5036311;28;92498;-77
2022/10/31 11:33:18;;;;;;;1.70;1.60;;;;;;;;;;5039433;28;93116;-77
2022/10/31 11:35:45;;;;;;;1.90;1.73;;;;;;;;;;5016898;28;94886;-77
2022/10/31 11:38:16;;;;;;;1.77;1.42;;;;;;;;;;5036291;28;95541;-77
2022/10/31 11:40:51;;;;;;;1.80;1.70;;;;;;;;;;5036045;28;93475;-77
2022/10/31 11:43:17;;;;;;;1.80;1.70;;;;;;;;;;5036330;28;92417;-77
2022/10/31 11:45:44;;;;;;;2.20;1.40;;;;;;;;;;5036893;28;92941;-77
2022/10/31 11:48:18;;;;;;;1.50;1.40;;;;;;;;;;5035802;28;93410;-77
2022/10/31 11:50:49;;;;;;;1.58;1.48;;;;;;;;;;5018414;28;92443;-77
2022/10/31 11:53:17;;;;;;;2.53;1.52;;;;;;;;;;5036442;28;93466;-77
2022/10/31 11:55:45;;;;;;;1.95;1.75;;;;;;;;;;5038922;28;93442;-77
2022/10/31 11:58:37;;;;;;;3.50;1.80;;;;;;;;;;5036367;28;93739;-77
2022/10/31 12:01:04;;;;;;;1.50;1.40;;;;;;;;;;5029843;28;95887;-77
2022/10/31 12:03:33;;;;;;;1.85;1.73;;;;;;;;;;5035637;28;92474;-77
2022/10/31 12:06:05;;;;;;;1.67;1.58;;;;;;;;;;5036537;28;95934;-77
2022/10/31 12:08:33;;;;;;;1.98;1.83;;;;;;;;;;5035624;28;93441;-78
2022/10/31 12:11:15;;;;;;;2.17;1.67;;;;;;;;;;5035613;28;92453;-77
2022/10/31 12:13:55;;;;;;;2.28;1.80;;;;;;;;;;5036316;28;92375;-77
2022/10/31 12:16:31;;;;;;;1.77;1.58;;;;;;;;;;5035213;28;92446;-77
2022/10/31 12:19:00;;;;;;;1.73;1.48;;;;;;;;;;5039943;28;91721;-77
2022/10/31 12:21:37;;;;;;;2.05;1.55;;;;;;;;;;5035350;28;93506;-77
2022/10/31 12:24:13;;;;;;;1.70;1.60;;;;;;;;;;5035832;28;92463;-77
2022/10/31 12:26:49;;;;;;;2.20;2.00;;;;;;;;;;5033987;28;94756;-77
2022/10/31 12:29:18;;;;;;;2.03;1.83;;;;;;;;;;5035278;28;93460;-77
2022/10/31 12:31:49;;;;;;;1.77;1.50;;;;;;;;;;5035249;28;92533;-77
2022/10/31 12:34:24;;;;;;;2.28;1.52;;;;;;;;;;5035738;28;95476;-77
2022/10/31 12:37:03;;;;;;;3.38;1.95;;;;;;;;;;5035834;28;93553;-77
2022/10/31 12:39:38;;;;;;;1.92;1.73;;;;;;;;;;5035505;28;92469;-77
2022/10/31 12:42:07;;;;;;;3.80;1.88;;;;;;;;;;5038353;28;93400;-77
2022/10/31 12:44:39;;;;;;;2.13;1.50;;;;;;;;;;5036309;28;91702;-77
2022/10/31 12:47:17;;;;;;;1.55;1.38;;;;;;;;;;5034528;27;92451;-77
2022/10/31 12:49:44;;;;;;;2.53;2.00;;;;;;;;;;5034991;28;93794;-77
2022/10/31 12:52:31;;;;;;;1.60;1.50;;;;;;;;;;5033314;28;94809;-77
2022/10/31 12:55:16;;;;;;;2.08;1.70;;;;;;;;;;5017713;28;95950;-77
2022/10/31 12:57:44;;;;;;;2.72;2.20;;;;;;;;;;5035166;28;96331;-77
2022/10/31 13:00:15;;;;;;;2.67;1.90;;;;;;;;;;5035141;28;92579;-77
2022/10/31 13:02:44;;;;;;;2.00;1.80;;;;;;;;;;5034860;28;93066;-77
2022/10/31 13:05:11;;;;;;;2.33;1.90;;;;;;;;;;5038117;28;94431;-77
2022/10/31 13:07:41;;;;;;;1.85;1.75;;;;;;;;;;5034263;28;93058;-77
2022/10/31 13:10:08;;;;;;;1.98;1.88;;;;;;;;;;5017915;28;92708;-77
2022/10/31 13:12:36;;;;;;;3.17;1.85;;;;;;;;;;5035077;28;92486;-77
2022/10/31 13:15:13;;;;;;;2.53;2.13;;;;;;;;;;5034652;28;93575;-77
2022/10/31 13:17:45;;;;;;;3.13;1.83;;;;;;;;;;5015108;28;96124;-77
2022/10/31 13:20:11;;;;;;;3.35;1.98;;;;;;;;;;5034616;28;92401;-77
2022/10/31 13:22:37;;;;;;;4.63;2.00;;;;;;;;;;5034832;28;93130;-77
2022/10/31 13:25:10;;;;;;;4.18;2.55;;;;;;;;;;5037638;28;93207;-77
2022/10/31 13:27:45;;;;;;;2.38;2.10;;;;;;;;;;5034725;28;93163;-78
2022/10/31 13:30:16;;;;;;;4.07;2.28;;;;;;;;;;5034327;28;93476;-77
2022/10/31 13:33:01;;;;;;;3.25;2.20;;;;;;;;;;5034556;28;92487;-77
2022/10/31 13:35:32;;;;;;;2.35;2.08;;;;;;;;;;5035140;28;93116;-77
2022/10/31 13:38:10;;;;;;;2.58;2.38;;;;;;;;;;5034315;28;93466;-77
2022/10/31 13:40:36;;;;;;;2.20;2.00;;;;;;;;;;5034346;28;92855;-77
2022/10/31 13:43:06;;;;;;;3.70;2.58;;;;;;;;;;5032640;28;94761;-77
2022/10/31 13:45:33;;;;;;;4.22;2.72;;;;;;;;;;5034592;28;93474;-77
2022/10/31 13:48:18;;;;;;;2.25;2.05;;;;;;;;;;5019748;28;92475;-77
2022/10/31 13:51:01;;;;;;;2.20;1.98;;;;;;;;;;5034449;28;93279;-77
2022/10/31 13:53:37;;;;;;;3.53;2.70;;;;;;;;;;5034230;28;92646;-77
2022/10/31 13:56:14;;;;;;;4.15;2.13;;;;;;;;;;5034495;28;93165;-78
2022/10/31 13:58:53;;;;;;;2.65;2.20;;;;;;;;;;5033974;28;93487;-78
2022/10/31 14:01:20;;;;;;;2.20;2.00;;;;;;;;;;5038000;28;91667;-77
2022/10/31 14:03:47;;;;;;;2.00;1.90;;;;;;;;;;5037609;28;92479;-77
2022/10/31 14:06:35;;;;;;;4.25;2.55;;;;;;;;;;5037638;28;95304;-77
2022/10/31 14:09:02;;;;;;;3.15;2.22;;;;;;;;;;5018459;28;94919;-77
2022/10/31 14:11:29;;;;;;;4.13;2.85;;;;;;;;;;5023008;28;95593;-78
2022/10/31 14:14:02;;;;;;;3.80;2.45;;;;;;;;;;5037525;28;92880;-77
2022/10/31 14:16:30;;;;;;;3.53;2.28;;;;;;;;;;5037322;28;93150;-77
2022/10/31 14:18:59;;;;;;;3.67;2.58;;;;;;;;;;5037300;28;93366;-77
2022/10/31 14:21:30;;;;;;;3.55;2.60;;;;;;;;;;5037567;28;92521;-77
2022/10/31 14:23:56;;;;;;;2.60;2.35;;;;;;;;;;5037999;28;93406;-77
2022/10/31 14:26:25;;;;;;;4.18;3.17;;;;;;;;;;5037723;28;91716;-77
2022/10/31 14:28:56;;;;;;;3.50;2.53;;;;;;;;;;5037362;28;92453;-78
2022/10/31 14:31:39;;;;;;;3.92;2.78;;;;;;;;;;5037506;28;93125;-77
2022/10/31 14:34:08;;;;;;;2.95;2.50;;;;;;;;;;5038627;28;95813;-77
2022/10/31 14:36:41;;;;;;;4.47;2.30;;;;;;;;;;5037893;28;95908;-77
2022/10/31 14:39:26;;;;;;;3.72;2.67;;;;;;;;;;5037125;28;93505;-77
2022/10/31 14:42:12;;;;;;;2.60;2.40;;;;;;;;;;5019877;28;92918;-77
2022/10/31 14:44:57;;;;;;;4.65;2.63;;;;;;;;;;5034490;28;94583;-77
2022/10/31 14:47:35;;;;;;;3.35;2.67;;;;;;;;;;5016892;28;93813;-78
2022/10/31 14:50:21;;;;;;;4.50;2.95;;;;;;;;;;5016906;28;92515;-78
2022/10/31 14:52:52;;;;;;;2.75;2.50;;;;;;;;;;5000001;28;93439;-77
2022/10/31 14:55:18;;;;;;;3.55;2.80;;;;;;;;;;5016817;28;93379;-77
2022/10/31 14:57:53;;;;;;;5.05;2.97;;;;;;;;;;5020095;28;92460;-77
2022/10/31 15:00:21;;;;;;;4.90;3.10;;;;;;;;;;5014903;28;95826;-77
2022/10/31 15:02:50;;;;;;;2.70;2.47;;;;;;;;;;5016478;28;92531;-77